sensor_id;sensor_type;location;lat;lon;timestamp;temperature;humidity
6462;DHT22;3264;42.862;25.098;2023-05-23T00:01:55;9.90;99.90
6462;DHT22;3264;42.862;25.098;2023-05-23T00:04:23;9.80;99.90
6462;DHT22;3264;42.862;25.098;2023-05-23T00:06:51;9.90;99.90
6462;DHT22;3264;42.862;25.098;2023-05-23T00:09:27;9.90;99.90
6462;DHT22;3264;42.862;25.098;2023-05-23T00:12:00;9.80;99.90
6462;DHT22;3264;42.862;25.098;2023-05-23T00:14:32;9.80;99.90
6462;DHT22;3264;42.862;25.098;2023-05-23T00:17:07;9.80;99.90
6462;DHT22;3264;42.862;25.098;2023-05-23T00:19:38;9.70;99.90
6462;DHT22;3264;42.862;25.098;2023-05-23T00:22:09;9.70;99.90
6462;DHT22;3264;42.862;25.098;2023-05-23T00:24:36;9.80;99.90
6462;DHT22;3264;42.862;25.098;2023-05-23T00:27:10;9.80;99.90
6462;DHT22;3264;42.862;25.098;2023-05-23T00:29:42;9.80;99.90
6462;DHT22;3264;42.862;25.098;2023-05-23T00:32:20;9.80;99.90
6462;DHT22;3264;42.862;25.098;2023-05-23T00:34:48;9.80;99.90
6462;DHT22;3264;42.862;25.098;2023-05-23T00:37:20;9.70;99.90
6462;DHT22;3264;42.862;25.098;2023-05-23T00:39:54;9.70;99.90
6462;DHT22;3264;42.862;25.098;2023-05-23T00:42:28;9.70;99.90
6462;DHT22;3264;42.862;25.098;2023-05-23T00:45:02;9.70;99.90
6462;DHT22;3264;42.862;25.098;2023-05-23T00:47:29;9.60;99.90
6462;DHT22;3264;42.862;25.098;2023-05-23T00:50:02;9.60;99.90
6462;DHT22;3264;42.862;25.098;2023-05-23T00:52:35;9.60;99.90
6462;DHT22;3264;42.862;25.098;2023-05-23T00:55:07;9.50;99.90
6462;DHT22;3264;42.862;25.098;2023-05-23T00:57:38;9.60;99.90
6462;DHT22;3264;42.862;25.098;2023-05-23T01:00:15;9.60;99.90
6462;DHT22;3264;42.862;25.098;2023-05-23T01:02:46;9.60;99.90
6462;DHT22;3264;42.862;25.098;2023-05-23T01:05:19;9.60;99.90
6462;DHT22;3264;42.862;25.098;2023-05-23T01:07:48;9.50;99.90
6462;DHT22;3264;42.862;25.098;2023-05-23T01:10:21;9.50;99.90
6462;DHT22;3264;42.862;25.098;2023-05-23T01:12:58;9.60;99.90
6462;DHT22;3264;42.862;25.098;2023-05-23T01:15:39;9.50;99.90
6462;DHT22;3264;42.862;25.098;2023-05-23T01:18:11;9.50;99.90
6462;DHT22;3264;42.862;25.098;2023-05-23T01:20:46;9.50;99.90
6462;DHT22;3264;42.862;25.098;2023-05-23T01:23:52;9.40;99.90
6462;DHT22;3264;42.862;25.098;2023-05-23T01:26:40;9.40;99.90
6462;DHT22;3264;42.862;25.098;2023-05-23T01:29:13;9.40;99.90
6462;DHT22;3264;42.862;25.098;2023-05-23T01:31:54;9.30;99.90
6462;DHT22;3264;42.862;25.098;2023-05-23T01:34:23;9.30;99.90
6462;DHT22;3264;42.862;25.098;2023-05-23T01:36:54;9.30;99.90
6462;DHT22;3264;42.862;25.098;2023-05-23T01:39:24;9.30;99.90
6462;DHT22;3264;42.862;25.098;2023-05-23T01:41:53;9.20;99.90
6462;DHT22;3264;42.862;25.098;2023-05-23T01:44:28;9.30;99.90
6462;DHT22;3264;42.862;25.098;2023-05-23T01:46:56;9.30;99.90
6462;DHT22;3264;42.862;25.098;2023-05-23T01:49:27;9.30;99.90
6462;DHT22;3264;42.862;25.098;2023-05-23T01:51:56;9.10;99.90
6462;DHT22;3264;42.862;25.098;2023-05-23T01:54:26;9.20;99.90
6462;DHT22;3264;42.862;25.098;2023-05-23T01:56:58;9.30;99.90
6462;DHT22;3264;42.862;25.098;2023-05-23T01:59:30;9.30;99.90
6462;DHT22;3264;42.862;25.098;2023-05-23T02:02:01;9.30;99.90
6462;DHT22;3264;42.862;25.098;2023-05-23T02:04:36;9.30;99.90
6462;DHT22;3264;42.862;25.098;2023-05-23T02:07:04;9.20;99.90
6462;DHT22;3264;42.862;25.098;2023-05-23T02:09:34;9.20;99.90
6462;DHT22;3264;42.862;25.098;2023-05-23T02:12:02;9.20;99.90
6462;DHT22;3264;42.862;25.098;2023-05-23T02:15:13;9.10;99.90
6462;DHT22;3264;42.862;25.098;2023-05-23T02:17:46;9.10;99.90
6462;DHT22;3264;42.862;25.098;2023-05-23T02:20:14;9.10;99.90
6462;DHT22;3264;42.862;25.098;2023-05-23T02:22:43;9.10;99.90
6462;DHT22;3264;42.862;25.098;2023-05-23T02:25:12;9.20;99.90
6462;DHT22;3264;42.862;25.098;2023-05-23T02:27:40;9.20;99.90
6462;DHT22;3264;42.862;25.098;2023-05-23T02:30:13;9.10;99.90
6462;DHT22;3264;42.862;25.098;2023-05-23T02:32:41;9.00;99.90
6462;DHT22;3264;42.862;25.098;2023-05-23T02:35:09;9.00;99.90
6462;DHT22;3264;42.862;25.098;2023-05-23T02:37:46;9.00;99.90
6462;DHT22;3264;42.862;25.098;2023-05-23T02:40:13;9.00;99.90
6462;DHT22;3264;42.862;25.098;2023-05-23T02:42:41;9.00;99.90
6462;DHT22;3264;42.862;25.098;2023-05-23T02:45:10;9.00;99.90
6462;DHT22;3264;42.862;25.098;2023-05-23T02:47:41;9.00;99.90
6462;DHT22;3264;42.862;25.098;2023-05-23T02:50:12;9.00;99.90
6462;DHT22;3264;42.862;25.098;2023-05-23T02:52:39;9.00;99.90
6462;DHT22;3264;42.862;25.098;2023-05-23T02:55:20;9.00;99.90
6462;DHT22;3264;42.862;25.098;2023-05-23T02:57:50;9.00;99.90
6462;DHT22;3264;42.862;25.098;2023-05-23T03:00:21;9.00;99.90
6462;DHT22;3264;42.862;25.098;2023-05-23T03:02:51;9.00;99.90
6462;DHT22;3264;42.862;25.098;2023-05-23T03:05:21;9.00;99.90
6462;DHT22;3264;42.862;25.098;2023-05-23T03:07:51;9.00;99.90
6462;DHT22;3264;42.862;25.098;2023-05-23T03:10:22;9.10;99.90
6462;DHT22;3264;42.862;25.098;2023-05-23T03:12:53;9.10;99.90
6462;DHT22;3264;42.862;25.098;2023-05-23T03:15:21;9.20;99.90
6462;DHT22;3264;42.862;25.098;2023-05-23T03:17:51;9.20;99.90
6462;DHT22;3264;42.862;25.098;2023-05-23T03:20:23;9.30;99.90
6462;DHT22;3264;42.862;25.098;2023-05-23T03:22:54;9.40;99.90
6462;DHT22;3264;42.862;25.098;2023-05-23T03:25:21;9.50;99.90
6462;DHT22;3264;42.862;25.098;2023-05-23T03:27:49;9.60;99.90
6462;DHT22;3264;42.862;25.098;2023-05-23T03:30:20;9.70;99.90
6462;DHT22;3264;42.862;25.098;2023-05-23T03:32:52;9.70;99.90
6462;DHT22;3264;42.862;25.098;2023-05-23T03:35:20;9.70;99.90
6462;DHT22;3264;42.862;25.098;2023-05-23T03:37:51;9.70;99.90
6462;DHT22;3264;42.862;25.098;2023-05-23T03:40:25;9.70;99.90
6462;DHT22;3264;42.862;25.098;2023-05-23T03:43:02;9.80;99.90
6462;DHT22;3264;42.862;25.098;2023-05-23T03:45:43;9.90;99.90
6462;DHT22;3264;42.862;25.098;2023-05-23T03:48:23;9.80;99.90
6462;DHT22;3264;42.862;25.098;2023-05-23T03:50:50;9.90;99.90
6462;DHT22;3264;42.862;25.098;2023-05-23T03:53:19;9.80;99.90
6462;DHT22;3264;42.862;25.098;2023-05-23T03:55:47;9.90;99.90
6462;DHT22;3264;42.862;25.098;2023-05-23T03:58:15;10.10;99.90
6462;DHT22;3264;42.862;25.098;2023-05-23T04:00:43;10.10;99.90
6462;DHT22;3264;42.862;25.098;2023-05-23T04:03:11;10.20;99.90
6462;DHT22;3264;42.862;25.098;2023-05-23T04:05:44;10.30;99.90
6462;DHT22;3264;42.862;25.098;2023-05-23T04:08:11;10.40;99.90
6462;DHT22;3264;42.862;25.098;2023-05-23T04:10:39;10.40;99.90
6462;DHT22;3264;42.862;25.098;2023-05-23T04:13:07;10.40;99.90
6462;DHT22;3264;42.862;25.098;2023-05-23T04:15:37;10.50;99.90
6462;DHT22;3264;42.862;25.098;2023-05-23T04:18:07;10.30;99.90
6462;DHT22;3264;42.862;25.098;2023-05-23T04:20:36;10.50;99.90
6462;DHT22;3264;42.862;25.098;2023-05-23T04:23:07;10.40;99.90
6462;DHT22;3264;42.862;25.098;2023-05-23T04:25:38;10.50;99.90
6462;DHT22;3264;42.862;25.098;2023-05-23T04:28:13;10.60;99.90
6462;DHT22;3264;42.862;25.098;2023-05-23T04:30:45;10.90;99.90
6462;DHT22;3264;42.862;25.098;2023-05-23T04:33:14;11.10;99.90
6462;DHT22;3264;42.862;25.098;2023-05-23T04:35:42;11.20;99.90
6462;DHT22;3264;42.862;25.098;2023-05-23T04:38:28;11.30;99.90
6462;DHT22;3264;42.862;25.098;2023-05-23T04:41:02;11.30;99.90
6462;DHT22;3264;42.862;25.098;2023-05-23T04:43:31;11.30;99.90
6462;DHT22;3264;42.862;25.098;2023-05-23T04:46:12;11.60;99.90
6462;DHT22;3264;42.862;25.098;2023-05-23T04:48:40;11.70;99.90
6462;DHT22;3264;42.862;25.098;2023-05-23T04:51:12;11.70;99.90
6462;DHT22;3264;42.862;25.098;2023-05-23T04:53:41;11.80;99.90
6462;DHT22;3264;42.862;25.098;2023-05-23T04:56:14;11.90;99.90
6462;DHT22;3264;42.862;25.098;2023-05-23T04:58:47;12.00;99.90
6462;DHT22;3264;42.862;25.098;2023-05-23T05:01:15;12.00;99.90
6462;DHT22;3264;42.862;25.098;2023-05-23T05:03:43;12.10;99.90
6462;DHT22;3264;42.862;25.098;2023-05-23T05:06:12;12.00;99.90
6462;DHT22;3264;42.862;25.098;2023-05-23T05:08:44;12.10;99.90
6462;DHT22;3264;42.862;25.098;2023-05-23T05:11:13;12.20;99.90
6462;DHT22;3264;42.862;25.098;2023-05-23T05:13:41;12.30;99.90
6462;DHT22;3264;42.862;25.098;2023-05-23T05:16:10;12.50;99.90
6462;DHT22;3264;42.862;25.098;2023-05-23T05:18:38;12.40;99.90
6462;DHT22;3264;42.862;25.098;2023-05-23T05:21:07;12.40;99.90
6462;DHT22;3264;42.862;25.098;2023-05-23T05:23:40;12.50;99.90
6462;DHT22;3264;42.862;25.098;2023-05-23T05:26:10;12.60;99.90
6462;DHT22;3264;42.862;25.098;2023-05-23T05:28:42;12.70;99.90
6462;DHT22;3264;42.862;25.098;2023-05-23T05:31:11;12.80;99.90
6462;DHT22;3264;42.862;25.098;2023-05-23T05:33:43;12.80;99.90
6462;DHT22;3264;42.862;25.098;2023-05-23T05:36:15;13.00;99.90
6462;DHT22;3264;42.862;25.098;2023-05-23T05:38:43;13.00;99.90
6462;DHT22;3264;42.862;25.098;2023-05-23T05:41:18;13.00;99.90
6462;DHT22;3264;42.862;25.098;2023-05-23T05:43:47;13.10;99.90
6462;DHT22;3264;42.862;25.098;2023-05-23T05:46:18;13.40;99.90
6462;DHT22;3264;42.862;25.098;2023-05-23T05:48:46;13.70;99.90
6462;DHT22;3264;42.862;25.098;2023-05-23T05:51:14;13.80;99.90
6462;DHT22;3264;42.862;25.098;2023-05-23T05:53:44;14.00;99.90
6462;DHT22;3264;42.862;25.098;2023-05-23T05:56:14;14.20;99.90
6462;DHT22;3264;42.862;25.098;2023-05-23T05:58:51;14.30;99.90
6462;DHT22;3264;42.862;25.098;2023-05-23T06:01:19;14.50;99.90
6462;DHT22;3264;42.862;25.098;2023-05-23T06:03:47;14.60;99.90
6462;DHT22;3264;42.862;25.098;2023-05-23T06:06:15;14.80;99.90
6462;DHT22;3264;42.862;25.098;2023-05-23T06:08:42;15.30;99.90
6462;DHT22;3264;42.862;25.098;2023-05-23T06:11:10;15.50;99.90
6462;DHT22;3264;42.862;25.098;2023-05-23T06:13:39;15.60;99.90
6462;DHT22;3264;42.862;25.098;2023-05-23T06:16:09;15.00;99.90
6462;DHT22;3264;42.862;25.098;2023-05-23T06:18:37;14.70;99.90
6462;DHT22;3264;42.862;25.098;2023-05-23T06:21:04;15.00;99.90
6462;DHT22;3264;42.862;25.098;2023-05-23T06:23:32;15.30;99.90
6462;DHT22;3264;42.862;25.098;2023-05-23T06:26:00;15.40;99.90
6462;DHT22;3264;42.862;25.098;2023-05-23T06:28:28;15.90;99.90
6462;DHT22;3264;42.862;25.098;2023-05-23T06:30:57;16.00;99.90
6462;DHT22;3264;42.862;25.098;2023-05-23T06:33:26;16.50;99.90
6462;DHT22;3264;42.862;25.098;2023-05-23T06:35:54;17.10;99.90
6462;DHT22;3264;42.862;25.098;2023-05-23T06:38:23;16.40;99.90
6462;DHT22;3264;42.862;25.098;2023-05-23T06:40:51;17.00;99.90
6462;DHT22;3264;42.862;25.098;2023-05-23T06:43:19;17.80;99.90
6462;DHT22;3264;42.862;25.098;2023-05-23T06:45:47;18.00;99.90
6462;DHT22;3264;42.862;25.098;2023-05-23T06:48:15;18.10;99.90
6462;DHT22;3264;42.862;25.098;2023-05-23T06:50:45;18.50;99.90
6462;DHT22;3264;42.862;25.098;2023-05-23T06:53:13;18.90;99.90
6462;DHT22;3264;42.862;25.098;2023-05-23T06:55:41;18.80;99.90
6462;DHT22;3264;42.862;25.098;2023-05-23T06:58:18;18.90;99.90
6462;DHT22;3264;42.862;25.098;2023-05-23T07:00:46;18.70;99.90
6462;DHT22;3264;42.862;25.098;2023-05-23T07:03:14;18.90;99.90
6462;DHT22;3264;42.862;25.098;2023-05-23T07:05:42;18.80;99.90
6462;DHT22;3264;42.862;25.098;2023-05-23T07:08:12;19.00;99.90
6462;DHT22;3264;42.862;25.098;2023-05-23T07:10:40;19.50;99.90
6462;DHT22;3264;42.862;25.098;2023-05-23T07:13:08;19.50;99.90
6462;DHT22;3264;42.862;25.098;2023-05-23T07:15:37;19.40;99.90
6462;DHT22;3264;42.862;25.098;2023-05-23T07:18:06;19.60;99.90
6462;DHT22;3264;42.862;25.098;2023-05-23T07:20:35;19.10;99.90
6462;DHT22;3264;42.862;25.098;2023-05-23T07:23:02;19.20;99.90
6462;DHT22;3264;42.862;25.098;2023-05-23T07:25:32;19.00;99.90
6462;DHT22;3264;42.862;25.098;2023-05-23T07:28:01;18.90;99.90
6462;DHT22;3264;42.862;25.098;2023-05-23T07:30:29;18.90;99.90
6462;DHT22;3264;42.862;25.098;2023-05-23T07:32:58;19.20;99.90
6462;DHT22;3264;42.862;25.098;2023-05-23T07:35:26;19.50;99.90
6462;DHT22;3264;42.862;25.098;2023-05-23T07:37:55;19.90;99.90
6462;DHT22;3264;42.862;25.098;2023-05-23T07:40:23;19.60;99.90
6462;DHT22;3264;42.862;25.098;2023-05-23T07:42:53;20.40;99.90
6462;DHT22;3264;42.862;25.098;2023-05-23T07:45:21;20.90;99.90
6462;DHT22;3264;42.862;25.098;2023-05-23T07:47:50;20.70;99.90
6462;DHT22;3264;42.862;25.098;2023-05-23T07:50:18;21.50;99.90
6462;DHT22;3264;42.862;25.098;2023-05-23T07:52:46;22.10;99.90
6462;DHT22;3264;42.862;25.098;2023-05-23T07:55:14;21.20;99.90
6462;DHT22;3264;42.862;25.098;2023-05-23T07:57:42;21.40;99.90
6462;DHT22;3264;42.862;25.098;2023-05-23T08:00:13;21.10;99.50
6462;DHT22;3264;42.862;25.098;2023-05-23T08:02:42;21.20;99.90
6462;DHT22;3264;42.862;25.098;2023-05-23T08:05:10;21.10;99.90
6462;DHT22;3264;42.862;25.098;2023-05-23T08:07:39;20.70;99.90
6462;DHT22;3264;42.862;25.098;2023-05-23T08:10:08;20.90;99.90
6462;DHT22;3264;42.862;25.098;2023-05-23T08:12:37;21.30;96.90
6462;DHT22;3264;42.862;25.098;2023-05-23T08:15:06;22.20;96.90
6462;DHT22;3264;42.862;25.098;2023-05-23T08:17:36;22.60;92.00
6462;DHT22;3264;42.862;25.098;2023-05-23T08:20:06;22.20;90.30
6462;DHT22;3264;42.862;25.098;2023-05-23T08:22:34;23.40;92.50
6462;DHT22;3264;42.862;25.098;2023-05-23T08:25:04;22.60;95.10
6462;DHT22;3264;42.862;25.098;2023-05-23T08:27:32;23.00;98.20
6462;DHT22;3264;42.862;25.098;2023-05-23T08:30:02;23.00;94.40
6462;DHT22;3264;42.862;25.098;2023-05-23T08:32:30;23.00;93.80
6462;DHT22;3264;42.862;25.098;2023-05-23T08:35:01;22.90;95.80
6462;DHT22;3264;42.862;25.098;2023-05-23T08:37:29;23.20;93.20
6462;DHT22;3264;42.862;25.098;2023-05-23T08:39:57;21.60;92.00
6462;DHT22;3264;42.862;25.098;2023-05-23T08:42:25;22.40;96.50
6462;DHT22;3264;42.862;25.098;2023-05-23T08:44:54;22.10;94.30
6462;DHT22;3264;42.862;25.098;2023-05-23T08:47:22;22.20;93.40
6462;DHT22;3264;42.862;25.098;2023-05-23T08:49:52;22.60;94.90
6462;DHT22;3264;42.862;25.098;2023-05-23T08:52:24;22.00;92.50
6462;DHT22;3264;42.862;25.098;2023-05-23T08:54:55;22.00;93.30
6462;DHT22;3264;42.862;25.098;2023-05-23T08:57:24;21.60;94.10
6462;DHT22;3264;42.862;25.098;2023-05-23T08:59:53;21.70;93.00
6462;DHT22;3264;42.862;25.098;2023-05-23T09:02:21;22.20;95.90
6462;DHT22;3264;42.862;25.098;2023-05-23T09:04:50;21.50;90.00
6462;DHT22;3264;42.862;25.098;2023-05-23T09:07:19;21.50;93.60
6462;DHT22;3264;42.862;25.098;2023-05-23T09:09:49;22.70;97.50
6462;DHT22;3264;42.862;25.098;2023-05-23T09:12:17;22.80;90.70
6462;DHT22;3264;42.862;25.098;2023-05-23T09:14:47;22.60;90.00
6462;DHT22;3264;42.862;25.098;2023-05-23T09:17:17;22.80;98.00
6462;DHT22;3264;42.862;25.098;2023-05-23T09:19:47;23.10;92.60
6462;DHT22;3264;42.862;25.098;2023-05-23T09:22:15;22.90;90.70
6462;DHT22;3264;42.862;25.098;2023-05-23T09:24:43;22.20;91.40
6462;DHT22;3264;42.862;25.098;2023-05-23T09:27:12;22.20;97.10
6462;DHT22;3264;42.862;25.098;2023-05-23T09:29:40;22.20;90.00
6462;DHT22;3264;42.862;25.098;2023-05-23T09:32:12;22.50;90.40
6462;DHT22;3264;42.862;25.098;2023-05-23T09:34:40;22.80;93.00
6462;DHT22;3264;42.862;25.098;2023-05-23T09:37:11;22.50;91.20
6462;DHT22;3264;42.862;25.098;2023-05-23T09:39:46;22.40;90.60
6462;DHT22;3264;42.862;25.098;2023-05-23T09:42:20;22.20;90.20
6462;DHT22;3264;42.862;25.098;2023-05-23T09:44:49;23.30;92.90
6462;DHT22;3264;42.862;25.098;2023-05-23T09:47:18;22.00;87.40
6462;DHT22;3264;42.862;25.098;2023-05-23T09:49:47;22.00;89.60
6462;DHT22;3264;42.862;25.098;2023-05-23T09:52:14;22.40;91.90
6462;DHT22;3264;42.862;25.098;2023-05-23T09:54:43;22.90;87.20
6462;DHT22;3264;42.862;25.098;2023-05-23T09:57:14;22.80;87.40
6462;DHT22;3264;42.862;25.098;2023-05-23T09:59:50;21.20;90.80
6462;DHT22;3264;42.862;25.098;2023-05-23T10:02:37;21.60;92.30
6462;DHT22;3264;42.862;25.098;2023-05-23T10:05:17;22.30;90.60
6462;DHT22;3264;42.862;25.098;2023-05-23T10:07:50;22.70;87.30
6462;DHT22;3264;42.862;25.098;2023-05-23T10:10:18;23.00;84.10
6462;DHT22;3264;42.862;25.098;2023-05-23T10:12:49;23.10;84.30
6462;DHT22;3264;42.862;25.098;2023-05-23T10:15:26;23.30;90.90
6462;DHT22;3264;42.862;25.098;2023-05-23T10:18:14;23.00;87.30
6462;DHT22;3264;42.862;25.098;2023-05-23T10:20:47;22.20;84.80
6462;DHT22;3264;42.862;25.098;2023-05-23T10:23:17;21.70;95.90
6462;DHT22;3264;42.862;25.098;2023-05-23T10:25:48;21.70;92.90
6462;DHT22;3264;42.862;25.098;2023-05-23T10:28:16;21.50;93.10
6462;DHT22;3264;42.862;25.098;2023-05-23T10:30:46;21.60;94.40
6462;DHT22;3264;42.862;25.098;2023-05-23T10:33:14;21.60;89.90
6462;DHT22;3264;42.862;25.098;2023-05-23T10:35:49;21.80;93.10
6462;DHT22;3264;42.862;25.098;2023-05-23T10:38:29;21.90;92.30
6462;DHT22;3264;42.862;25.098;2023-05-23T10:41:08;23.40;92.50
6462;DHT22;3264;42.862;25.098;2023-05-23T10:43:44;23.80;88.30
6462;DHT22;3264;42.862;25.098;2023-05-23T10:46:15;24.00;92.60
6462;DHT22;3264;42.862;25.098;2023-05-23T10:48:45;23.60;88.00
6462;DHT22;3264;42.862;25.098;2023-05-23T10:51:14;23.90;93.00
6462;DHT22;3264;42.862;25.098;2023-05-23T10:53:44;23.80;90.80
6462;DHT22;3264;42.862;25.098;2023-05-23T10:56:19;24.00;84.80
6462;DHT22;3264;42.862;25.098;2023-05-23T10:58:52;23.70;84.60
6462;DHT22;3264;42.862;25.098;2023-05-23T11:01:22;23.20;83.40
6462;DHT22;3264;42.862;25.098;2023-05-23T11:03:51;22.90;86.50
6462;DHT22;3264;42.862;25.098;2023-05-23T11:06:31;22.30;84.50
6462;DHT22;3264;42.862;25.098;2023-05-23T11:09:04;22.10;91.10
6462;DHT22;3264;42.862;25.098;2023-05-23T11:29:18;23.90;91.00
6462;DHT22;3264;42.862;25.098;2023-05-23T11:31:47;24.70;82.70
6462;DHT22;3264;42.862;25.098;2023-05-23T11:34:15;24.90;84.30
6462;DHT22;3264;42.862;25.098;2023-05-23T11:36:46;24.80;78.10
6462;DHT22;3264;42.862;25.098;2023-05-23T11:39:19;25.20;79.40
6462;DHT22;3264;42.862;25.098;2023-05-23T11:41:57;25.50;81.20
6462;DHT22;3264;42.862;25.098;2023-05-23T11:44:28;25.30;83.40
6462;DHT22;3264;42.862;25.098;2023-05-23T11:46:59;24.80;75.90
6462;DHT22;3264;42.862;25.098;2023-05-23T11:49:28;24.50;79.40
6462;DHT22;3264;42.862;25.098;2023-05-23T11:51:57;23.60;78.40
6462;DHT22;3264;42.862;25.098;2023-05-23T11:54:26;22.60;80.80
6462;DHT22;3264;42.862;25.098;2023-05-23T11:56:55;22.20;84.30
6462;DHT22;3264;42.862;25.098;2023-05-23T11:59:24;22.20;81.60
6462;DHT22;3264;42.862;25.098;2023-05-23T12:01:55;22.50;83.00
6462;DHT22;3264;42.862;25.098;2023-05-23T12:04:25;22.90;92.50
6462;DHT22;3264;42.862;25.098;2023-05-23T12:06:53;22.10;84.20
6462;DHT22;3264;42.862;25.098;2023-05-23T12:09:24;22.20;87.60
6462;DHT22;3264;42.862;25.098;2023-05-23T12:11:52;22.00;89.20
6462;DHT22;3264;42.862;25.098;2023-05-23T12:14:28;21.70;84.70
6462;DHT22;3264;42.862;25.098;2023-05-23T12:16:57;22.30;91.40
6462;DHT22;3264;42.862;25.098;2023-05-23T12:19:25;23.10;91.40
6462;DHT22;3264;42.862;25.098;2023-05-23T12:21:53;23.70;86.80
6462;DHT22;3264;42.862;25.098;2023-05-23T12:24:22;24.40;83.90
6462;DHT22;3264;42.862;25.098;2023-05-23T12:26:51;24.60;80.30
6462;DHT22;3264;42.862;25.098;2023-05-23T12:29:20;24.60;79.40
6462;DHT22;3264;42.862;25.098;2023-05-23T12:31:52;23.60;73.20
6462;DHT22;3264;42.862;25.098;2023-05-23T12:34:28;23.90;76.30
6462;DHT22;3264;42.862;25.098;2023-05-23T12:36:58;23.90;74.70
6462;DHT22;3264;42.862;25.098;2023-05-23T12:39:29;24.00;71.10
6462;DHT22;3264;42.862;25.098;2023-05-23T12:42:07;23.90;74.70
6462;DHT22;3264;42.862;25.098;2023-05-23T12:44:39;24.20;73.10
6462;DHT22;3264;42.862;25.098;2023-05-23T12:47:08;24.30;74.30
6462;DHT22;3264;42.862;25.098;2023-05-23T12:49:38;24.60;78.40
6462;DHT22;3264;42.862;25.098;2023-05-23T12:52:08;24.30;72.30
6462;DHT22;3264;42.862;25.098;2023-05-23T12:54:36;24.50;74.20
6462;DHT22;3264;42.862;25.098;2023-05-23T12:57:04;23.70;74.50
6462;DHT22;3264;42.862;25.098;2023-05-23T12:59:32;23.10;70.20
6462;DHT22;3264;42.862;25.098;2023-05-23T13:02:01;23.90;74.40
6462;DHT22;3264;42.862;25.098;2023-05-23T13:04:28;23.80;71.80
6462;DHT22;3264;42.862;25.098;2023-05-23T13:06:57;23.90;73.30
6462;DHT22;3264;42.862;25.098;2023-05-23T13:09:25;23.70;69.00
6462;DHT22;3264;42.862;25.098;2023-05-23T13:11:57;24.10;78.80
6462;DHT22;3264;42.862;25.098;2023-05-23T13:14:25;24.00;72.80
6462;DHT22;3264;42.862;25.098;2023-05-23T13:16:53;24.10;75.00
6462;DHT22;3264;42.862;25.098;2023-05-23T13:19:22;24.50;75.70
6462;DHT22;3264;42.862;25.098;2023-05-23T13:21:50;24.70;75.40
6462;DHT22;3264;42.862;25.098;2023-05-23T13:24:20;24.30;75.30
6462;DHT22;3264;42.862;25.098;2023-05-23T13:26:48;24.50;76.20
6462;DHT22;3264;42.862;25.098;2023-05-23T13:29:16;24.60;78.50
6462;DHT22;3264;42.862;25.098;2023-05-23T13:31:44;24.40;75.70
6462;DHT22;3264;42.862;25.098;2023-05-23T13:34:13;24.40;76.10
6462;DHT22;3264;42.862;25.098;2023-05-23T13:36:40;24.70;81.00
6462;DHT22;3264;42.862;25.098;2023-05-23T13:39:08;24.80;76.00
6462;DHT22;3264;42.862;25.098;2023-05-23T13:41:39;24.90;75.20
6462;DHT22;3264;42.862;25.098;2023-05-23T13:44:07;25.20;76.90
6462;DHT22;3264;42.862;25.098;2023-05-23T13:46:34;25.10;71.70
6462;DHT22;3264;42.862;25.098;2023-05-23T13:49:20;25.00;74.30
6462;DHT22;3264;42.862;25.098;2023-05-23T13:51:49;25.20;73.90
6462;DHT22;3264;42.862;25.098;2023-05-23T13:54:16;24.20;70.90
6462;DHT22;3264;42.862;25.098;2023-05-23T13:56:45;24.80;82.60
6462;DHT22;3264;42.862;25.098;2023-05-23T13:59:13;25.30;76.30
6462;DHT22;3264;42.862;25.098;2023-05-23T14:01:46;25.00;69.60
6462;DHT22;3264;42.862;25.098;2023-05-23T14:04:14;23.80;69.30
6462;DHT22;3264;42.862;25.098;2023-05-23T14:06:43;23.70;70.30
6462;DHT22;3264;42.862;25.098;2023-05-23T14:09:11;24.20;77.20
6462;DHT22;3264;42.862;25.098;2023-05-23T14:11:40;24.50;78.10
6462;DHT22;3264;42.862;25.098;2023-05-23T14:14:09;25.10;76.30
6462;DHT22;3264;42.862;25.098;2023-05-23T14:16:38;25.40;74.30
6462;DHT22;3264;42.862;25.098;2023-05-23T14:19:06;25.20;71.70
6462;DHT22;3264;42.862;25.098;2023-05-23T14:21:35;25.20;71.00
6462;DHT22;3264;42.862;25.098;2023-05-23T14:24:04;25.20;68.70
6462;DHT22;3264;42.862;25.098;2023-05-23T14:26:32;25.30;75.60
6462;DHT22;3264;42.862;25.098;2023-05-23T14:28:59;25.70;73.70
6462;DHT22;3264;42.862;25.098;2023-05-23T14:31:29;24.80;79.90
6462;DHT22;3264;42.862;25.098;2023-05-23T14:33:57;23.70;78.00
6462;DHT22;3264;42.862;25.098;2023-05-23T14:36:24;23.30;77.20
6462;DHT22;3264;42.862;25.098;2023-05-23T14:38:53;23.00;80.70
6462;DHT22;3264;42.862;25.098;2023-05-23T14:41:21;22.70;79.30
6462;DHT22;3264;42.862;25.098;2023-05-23T14:43:48;22.40;80.70
6462;DHT22;3264;42.862;25.098;2023-05-23T14:46:17;22.00;77.50
6462;DHT22;3264;42.862;25.098;2023-05-23T14:48:47;21.20;77.70
6462;DHT22;3264;42.862;25.098;2023-05-23T14:51:14;20.90;82.20
6462;DHT22;3264;42.862;25.098;2023-05-23T14:53:43;21.00;89.60
6462;DHT22;3264;42.862;25.098;2023-05-23T14:56:11;21.10;89.70
6462;DHT22;3264;42.862;25.098;2023-05-23T14:58:38;21.00;91.40
6462;DHT22;3264;42.862;25.098;2023-05-23T15:01:10;21.10;90.80
6462;DHT22;3264;42.862;25.098;2023-05-23T15:03:39;21.00;91.50
6462;DHT22;3264;42.862;25.098;2023-05-23T15:06:09;20.70;91.20
6462;DHT22;3264;42.862;25.098;2023-05-23T15:08:36;20.60;85.70
6462;DHT22;3264;42.862;25.098;2023-05-23T15:11:04;20.60;92.00
6462;DHT22;3264;42.862;25.098;2023-05-23T15:13:33;20.80;91.00
6462;DHT22;3264;42.862;25.098;2023-05-23T15:16:01;20.70;90.60
6462;DHT22;3264;42.862;25.098;2023-05-23T15:18:30;20.70;86.60
6462;DHT22;3264;42.862;25.098;2023-05-23T15:20:58;20.80;87.80
6462;DHT22;3264;42.862;25.098;2023-05-23T15:23:28;20.80;88.00
6462;DHT22;3264;42.862;25.098;2023-05-23T15:25:56;20.80;88.20
6462;DHT22;3264;42.862;25.098;2023-05-23T15:28:23;20.90;90.80
6462;DHT22;3264;42.862;25.098;2023-05-23T15:30:51;20.90;92.60
6462;DHT22;3264;42.862;25.098;2023-05-23T15:33:20;21.20;90.40
6462;DHT22;3264;42.862;25.098;2023-05-23T15:35:48;21.30;87.10
6462;DHT22;3264;42.862;25.098;2023-05-23T15:38:16;21.40;87.90
6462;DHT22;3264;42.862;25.098;2023-05-23T15:40:45;21.40;86.90
6462;DHT22;3264;42.862;25.098;2023-05-23T15:43:14;21.00;86.60
6462;DHT22;3264;42.862;25.098;2023-05-23T15:45:41;21.20;86.60
6462;DHT22;3264;42.862;25.098;2023-05-23T15:48:09;21.30;93.60
6462;DHT22;3264;42.862;25.098;2023-05-23T15:50:37;20.90;92.60
6462;DHT22;3264;42.862;25.098;2023-05-23T15:53:05;20.90;94.00
6462;DHT22;3264;42.862;25.098;2023-05-23T15:55:34;20.70;96.80
6462;DHT22;3264;42.862;25.098;2023-05-23T15:58:04;20.50;98.50
6462;DHT22;3264;42.862;25.098;2023-05-23T16:00:32;20.40;99.50
6462;DHT22;3264;42.862;25.098;2023-05-23T16:03:01;20.30;98.40
6462;DHT22;3264;42.862;25.098;2023-05-23T16:05:29;20.20;93.60
6462;DHT22;3264;42.862;25.098;2023-05-23T16:07:57;20.20;96.80
6462;DHT22;3264;42.862;25.098;2023-05-23T16:10:25;20.20;98.20
6462;DHT22;3264;42.862;25.098;2023-05-23T16:12:53;20.10;99.60
6462;DHT22;3264;42.862;25.098;2023-05-23T16:15:23;19.90;99.50
6462;DHT22;3264;42.862;25.098;2023-05-23T16:17:51;19.90;99.70
6462;DHT22;3264;42.862;25.098;2023-05-23T16:20:18;19.80;99.90
6462;DHT22;3264;42.862;25.098;2023-05-23T16:22:46;19.70;99.90
6462;DHT22;3264;42.862;25.098;2023-05-23T16:25:14;19.70;99.90
6462;DHT22;3264;42.862;25.098;2023-05-23T16:27:41;19.70;99.90